Time;durP1;ratioP1;P1;durP2;ratioP2;P2;SDS_P1;SDS_P2;PMS_P1;PMS_P2;Temp;Humidity;BMP_temperature;BMP_pressure;BME280_temperature;BME280_humidity;BME280_pressure;Samples;Min_cycle;Max_cycle;Signal;HPM_P1;HPM_P2
2022/01/15 00:00:53;;;;;;;;;;;;;;;;;;5068281;28;1961;-82
2022/01/15 00:03:27;;;;;;;;;;;;;;;;;;5050051;28;1218;-83
2022/01/15 00:05:54;;;;;;;;;;;;;;;;;;5076320;28;1092;-82
2022/01/15 00:08:19;;;;;;;;;;;;;;;;;;5087271;28;1195;-83
2022/01/15 00:10:48;;;;;;;;;;;;;;;;;;5068732;28;1179;-82
2022/01/15 00:13:23;;;;;;;;;;;;;;;;;;5083763;28;1176;-82
2022/01/15 00:16:05;;;;;;;;;;;;;;;;;;5072440;28;1680;-82
2022/01/15 00:19:21;;;;;;;;;;;;;;;;;;5085040;28;1222;-82
2022/01/15 00:21:19;;;;;;;;;;;;;;;;;;5064973;28;1886;-84
2022/01/15 00:23:51;;;;;;;;;;;;;;;;;;5047871;28;1701;-82
2022/01/15 00:26:16;;;;;;;;;;;;;;;;;;5068410;28;1179;-82
2022/01/15 00:28:42;;;;;;;;;;;;;;;;;;5048079;28;1129;-82
2022/01/15 00:31:07;;;;;;;;;;;;;;;;;;5070057;28;1203;-82
2022/01/15 00:33:32;;;;;;;;;;;;;;;;;;5077189;28;1200;-82
2022/01/15 00:35:58;;;;;;;;;;;;;;;;;;5067363;28;1113;-83
2022/01/15 00:38:23;;;;;;;;;;;;;;;;;;5050492;28;1370;-83
2022/01/15 00:40:51;;;;;;;;;;;;;;;;;;5068561;28;1980;-80
2022/01/15 00:43:19;;;;;;;;;;;;;;;;;;5082314;28;1233;-82
2022/01/15 00:45:57;;;;;;;;;;;;;;;;;;5086592;28;1097;-82
2022/01/15 00:48:31;;;;;;;;;;;;;;;;;;5069121;28;1195;-82
2022/01/15 00:50:56;;;;;;;;;;;;;;;;;;5056925;28;1215;-83
2022/01/15 00:53:22;;;;;;;;;;;;;;;;;;5081200;28;1188;-83
2022/01/15 00:55:56;;;;;;;;;;;;;;;;;;5087992;28;1112;-80
2022/01/15 00:58:21;;;;;;;;;;;;;;;;;;5070176;28;1281;-82
2022/01/15 01:00:52;;;;;;;;;;;;;;;;;;5084307;28;1951;-82
2022/01/15 01:03:28;;;;;;;;;;;;;;;;;;5073006;28;1196;-81
2022/01/15 01:05:53;;;;;;;;;;;;;;;;;;5065055;28;1234;-82
2022/01/15 01:08:19;;;;;;;;;;;;;;;;;;5071026;28;1200;-82
2022/01/15 01:10:59;;;;;;;;;;;;;;;;;;5065919;28;1208;-81
2022/01/15 01:20:05;;;;;;;;;;;;;;;;;;5079642;28;956;-81
2022/01/15 01:24:11;;;;;;;;;;;;;;;;;;5083013;28;1152;-82
2022/01/15 01:26:45;;;;;;;;;;;;;;;;;;5083783;28;1037;-82
2022/01/15 01:29:25;;;;;;;;;;;;;;;;;;5049277;28;1245;-83
2022/01/15 01:32:06;;;;;;;;;;;;;;;;;;5068500;28;1434;-82
2022/01/15 01:34:35;;;;;;;;;;;;;;;;;;5080850;28;1223;-82
2022/01/15 01:37:08;;;;;;;;;;;;;;;;;;5082193;28;1404;-82
2022/01/15 01:39:43;;;;;;;;;;;;;;;;;;5082744;28;1369;-83
2022/01/15 01:42:29;;;;;;;;;;;;;;;;;;5083750;28;1973;-83
2022/01/15 01:45:06;;;;;;;;;;;;;;;;;;5058952;28;1289;-82
2022/01/15 01:47:39;;;;;;;;;;;;;;;;;;5081997;28;1237;-83
2022/01/15 01:50:06;;;;;;;;;;;;;;;;;;5060296;28;1294;-82
2022/01/15 01:52:31;;;;;;;;;;;;;;;;;;5066562;28;1140;-81
2022/01/15 01:54:57;;;;;;;;;;;;;;;;;;5066751;28;1217;-80
2022/01/15 01:57:23;;;;;;;;;;;;;;;;;;5085995;28;1120;-80
2022/01/15 01:59:49;;;;;;;;;;;;;;;;;;5084312;28;1248;-81
2022/01/15 02:02:14;;;;;;;;;;;;;;;;;;5080931;28;1987;-81
2022/01/15 02:04:39;;;;;;;;;;;;;;;;;;5081397;28;1174;-81
2022/01/15 02:07:04;;;;;;;;;;;;;;;;;;5079702;28;1163;-81
2022/01/15 02:09:30;;;;;;;;;;;;;;;;;;5063294;28;1180;-81
2022/01/15 02:11:59;;;;;;;;;;;;;;;;;;5061786;28;1219;-80
2022/01/15 02:14:25;;;;;;;;;;;;;;;;;;5066134;28;1209;-81
2022/01/15 02:16:50;;;;;;;;;;;;;;;;;;5070554;28;1183;-81
2022/01/15 02:19:16;;;;;;;;;;;;;;;;;;5062711;28;1195;-81
2022/01/15 02:24:12;;;;;;;;;;;;;;;;;;5063914;28;1164;-80
2022/01/15 02:26:39;;;;;;;;;;;;;;;;;;5081844;28;1192;-80
2022/01/15 02:29:05;;;;;;;;;;;;;;;;;;5064398;28;1266;-81
2022/01/15 02:31:31;;;;;;;;;;;;;;;;;;5062515;28;1211;-81
2022/01/15 02:34:00;;;;;;;;;;;;;;;;;;5045179;28;1472;-81
2022/01/15 02:36:28;;;;;;;;;;;;;;;;;;5063351;28;1313;-82
2022/01/15 02:38:53;;;;;;;;;;;;;;;;;;5063080;28;1223;-82
2022/01/15 02:41:26;;;;;;;;;;;;;;;;;;5062590;28;1894;-82
2022/01/15 02:43:52;;;;;;;;;;;;;;;;;;5068873;28;1188;-80
2022/01/15 02:46:35;;;;;;;;;;;;;;;;;;5045398;28;1270;-81
2022/01/15 02:49:02;;;;;;;;;;;;;;;;;;5061163;28;1306;-80
2022/01/15 02:51:32;;;;;;;;;;;;;;;;;;5063320;28;1186;-80
2022/01/15 02:54:07;;;;;;;;;;;;;;;;;;5063810;28;1270;-81
2022/01/15 02:56:34;;;;;;;;;;;;;;;;;;5069301;28;1289;-81
2022/01/15 02:59:04;;;;;;;;;;;;;;;;;;5065626;28;1165;-81
2022/01/15 03:01:30;;;;;;;;;;;;;;;;;;5069463;28;1904;-81
2022/01/15 03:03:55;;;;;;;;;;;;;;;;;;5080720;28;1457;-81
2022/01/15 03:06:21;;;;;;;;;;;;;;;;;;5079080;28;1367;-82
2022/01/15 03:08:47;;;;;;;;;;;;;;;;;;5084834;28;1220;-81
2022/01/15 03:11:13;;;;;;;;;;;;;;;;;;5069954;28;1156;-81
2022/01/15 03:13:39;;;;;;;;;;;;;;;;;;5065696;28;1171;-82
2022/01/15 03:16:09;;;;;;;;;;;;;;;;;;5060143;28;1260;-82
2022/01/15 03:18:34;;;;;;;;;;;;;;;;;;5061927;28;1266;-81
2022/01/15 03:21:07;;;;;;;;;;;;;;;;;;5046899;28;1956;-81
2022/01/15 03:23:33;;;;;;;;;;;;;;;;;;5083937;28;1376;-81
2022/01/15 03:26:08;;;;;;;;;;;;;;;;;;5081848;28;1164;-81
2022/01/15 03:28:36;;;;;;;;;;;;;;;;;;5082589;28;1210;-81
2022/01/15 03:31:05;;;;;;;;;;;;;;;;;;5079716;28;1366;-82
2022/01/15 03:33:31;;;;;;;;;;;;;;;;;;5081135;28;1202;-80
2022/01/15 03:35:57;;;;;;;;;;;;;;;;;;5083145;28;1185;-81
2022/01/15 03:38:22;;;;;;;;;;;;;;;;;;5062979;28;1239;-80
2022/01/15 03:40:47;;;;;;;;;;;;;;;;;;5064739;28;1228;-80
2022/01/15 03:43:12;;;;;;;;;;;;;;;;;;5071019;28;1914;-82
2022/01/15 03:45:38;;;;;;;;;;;;;;;;;;5063412;28;1112;-81
2022/01/15 03:48:06;;;;;;;;;;;;;;;;;;5080508;28;1151;-81
2022/01/15 03:50:31;;;;;;;;;;;;;;;;;;5067269;28;1186;-81
2022/01/15 03:52:57;;;;;;;;;;;;;;;;;;5086111;28;1189;-80
2022/01/15 03:55:23;;;;;;;;;;;;;;;;;;5083658;28;1334;-80
2022/01/15 03:57:48;;;;;;;;;;;;;;;;;;5086574;28;1146;-81
2022/01/15 04:00:19;;;;;;;;;;;;;;;;;;5084716;28;1276;-81
2022/01/15 04:02:44;;;;;;;;;;;;;;;;;;5083909;28;1906;-80
2022/01/15 04:05:10;;;;;;;;;;;;;;;;;;5082974;28;1120;-81
2022/01/15 04:07:35;;;;;;;;;;;;;;;;;;5070489;28;1328;-82
2022/01/15 04:10:08;;;;;;;;;;;;;;;;;;5055235;28;1344;-81
2022/01/15 04:12:33;;;;;;;;;;;;;;;;;;5084053;28;1101;-81
2022/01/15 04:14:59;;;;;;;;;;;;;;;;;;5080307;28;1168;-81
2022/01/15 04:17:25;;;;;;;;;;;;;;;;;;5062123;28;1343;-81
2022/01/15 04:19:51;;;;;;;;;;;;;;;;;;5063548;28;1293;-81
2022/01/15 04:22:16;;;;;;;;;;;;;;;;;;5064599;28;1948;-81
2022/01/15 04:24:41;;;;;;;;;;;;;;;;;;5066962;28;1097;-81
2022/01/15 04:27:10;;;;;;;;;;;;;;;;;;5048999;28;1135;-80
2022/01/15 04:29:35;;;;;;;;;;;;;;;;;;5066681;28;1285;-80
2022/01/15 04:32:02;;;;;;;;;;;;;;;;;;5062802;28;1140;-80
2022/01/15 04:34:28;;;;;;;;;;;;;;;;;;5061435;28;1459;-81
2022/01/15 04:36:59;;;;;;;;;;;;;;;;;;5066415;28;1219;-80
2022/01/15 04:39:24;;;;;;;;;;;;;;;;;;5066187;28;1204;-79
2022/01/15 04:41:53;;;;;;;;;;;;;;;;;;5049935;28;1994;-80
2022/01/15 04:44:18;;;;;;;;;;;;;;;;;;5065767;28;1161;-80
2022/01/15 04:46:43;;;;;;;;;;;;;;;;;;5068988;28;1344;-82
2022/01/15 04:49:09;;;;;;;;;;;;;;;;;;5089229;28;1248;-80
2022/01/15 04:51:34;;;;;;;;;;;;;;;;;;5091213;28;1124;-80
2022/01/15 04:53:59;;;;;;;;;;;;;;;;;;5088503;28;1172;-80
2022/01/15 04:56:25;;;;;;;;;;;;;;;;;;5084408;28;1052;-81
2022/01/15 04:58:51;;;;;;;;;;;;;;;;;;5072892;28;1187;-80
2022/01/15 05:01:16;;;;;;;;;;;;;;;;;;5066737;28;1890;-81
2022/01/15 05:03:42;;;;;;;;;;;;;;;;;;5064597;28;1140;-82
2022/01/15 05:06:17;;;;;;;;;;;;;;;;;;5065033;28;1436;-81
2022/01/15 05:08:44;;;;;;;;;;;;;;;;;;5064305;28;1219;-81
2022/01/15 05:11:29;;;;;;;;;;;;;;;;;;5073663;28;1128;-80
2022/01/15 05:13:54;;;;;;;;;;;;;;;;;;5074729;28;1457;-81
2022/01/15 05:16:19;;;;;;;;;;;;;;;;;;5077001;28;1285;-81
2022/01/15 05:18:44;;;;;;;;;;;;;;;;;;5062052;28;1199;-80
2022/01/15 05:21:16;;;;;;;;;;;;;;;;;;5079178;28;1972;-81
2022/01/15 05:23:41;;;;;;;;;;;;;;;;;;5069147;28;1273;-81
2022/01/15 05:26:06;;;;;;;;;;;;;;;;;;5066810;28;1211;-80
2022/01/15 05:28:34;;;;;;;;;;;;;;;;;;5064338;28;1145;-80
2022/01/15 05:31:00;;;;;;;;;;;;;;;;;;5068885;28;1346;-81
2022/01/15 05:33:28;;;;;;;;;;;;;;;;;;5082029;28;1167;-81
2022/01/15 05:35:53;;;;;;;;;;;;;;;;;;5068189;28;1098;-80
2022/01/15 05:38:18;;;;;;;;;;;;;;;;;;5084171;28;1176;-80
2022/01/15 05:40:47;;;;;;;;;;;;;;;;;;5056636;28;1151;-80
2022/01/15 05:43:18;;;;;;;;;;;;;;;;;;5047324;28;1910;-82
2022/01/15 05:45:53;;;;;;;;;;;;;;;;;;5052440;28;1278;-81
2022/01/15 05:48:27;;;;;;;;;;;;;;;;;;5083314;28;1108;-81
2022/01/15 05:50:53;;;;;;;;;;;;;;;;;;5067074;28;1104;-80
2022/01/15 05:53:18;;;;;;;;;;;;;;;;;;5062902;28;1160;-81
2022/01/15 05:55:44;;;;;;;;;;;;;;;;;;5066218;28;1265;-82
2022/01/15 05:58:09;;;;;;;;;;;;;;;;;;5066837;28;1290;-81
2022/01/15 06:00:35;;;;;;;;;;;;;;;;;;5061445;28;1302;-82
2022/01/15 06:03:00;;;;;;;;;;;;;;;;;;5082023;28;1951;-83
2022/01/15 06:05:25;;;;;;;;;;;;;;;;;;5082459;28;1224;-81
2022/01/15 06:07:51;;;;;;;;;;;;;;;;;;5067129;28;1242;-80
2022/01/15 06:10:19;;;;;;;;;;;;;;;;;;5082421;28;1392;-81
2022/01/15 06:12:44;;;;;;;;;;;;;;;;;;5076676;28;1151;-82
2022/01/15 06:15:15;;;;;;;;;;;;;;;;;;5063715;28;1214;-82
2022/01/15 06:17:40;;;;;;;;;;;;;;;;;;5059710;28;1212;-81
2022/01/15 06:20:06;;;;;;;;;;;;;;;;;;5062215;28;1155;-81
2022/01/15 06:22:31;;;;;;;;;;;;;;;;;;5064147;28;1898;-81
2022/01/15 06:24:57;;;;;;;;;;;;;;;;;;5084011;28;1288;-80
2022/01/15 06:27:22;;;;;;;;;;;;;;;;;;5046792;28;1172;-81
2022/01/15 06:29:47;;;;;;;;;;;;;;;;;;5059350;28;1143;-82
2022/01/15 06:32:12;;;;;;;;;;;;;;;;;;5081599;28;1116;-81
2022/01/15 06:34:38;;;;;;;;;;;;;;;;;;5065666;28;1397;-80
2022/01/15 06:37:04;;;;;;;;;;;;;;;;;;5074992;28;1291;-81
2022/01/15 06:39:30;;;;;;;;;;;;;;;;;;5063043;28;1333;-82
2022/01/15 06:41:55;;;;;;;;;;;;;;;;;;5057836;28;1921;-82
2022/01/15 06:44:23;;;;;;;;;;;;;;;;;;5062534;28;1188;-81
2022/01/15 06:46:48;;;;;;;;;;;;;;;;;;5062716;28;1174;-82
2022/01/15 06:49:14;;;;;;;;;;;;;;;;;;5072874;28;1266;-82
2022/01/15 06:51:39;;;;;;;;;;;;;;;;;;5083188;28;1218;-82
2022/01/15 06:54:05;;;;;;;;;;;;;;;;;;5084308;28;1263;-83
2022/01/15 06:56:30;;;;;;;;;;;;;;;;;;5083397;28;1156;-82
2022/01/15 06:58:55;;;;;;;;;;;;;;;;;;5082983;28;1412;-80
2022/01/15 07:01:24;;;;;;;;;;;;;;;;;;5064273;28;1893;-81
2022/01/15 07:03:49;;;;;;;;;;;;;;;;;;5081233;28;1164;-82
2022/01/15 07:06:14;;;;;;;;;;;;;;;;;;5047533;28;1310;-82
2022/01/15 07:08:39;;;;;;;;;;;;;;;;;;5066000;28;1199;-81
2022/01/15 07:11:05;;;;;;;;;;;;;;;;;;5083939;28;1273;-82
2022/01/15 07:13:33;;;;;;;;;;;;;;;;;;5065866;28;1242;-82
2022/01/15 07:15:58;;;;;;;;;;;;;;;;;;5065514;28;1131;-82
2022/01/15 07:18:27;;;;;;;;;;;;;;;;;;5081742;28;1170;-79
2022/01/15 07:20:53;;;;;;;;;;;;;;;;;;5078414;28;1344;-78
2022/01/15 07:23:18;;;;;;;;;;;;;;;;;;5066120;28;1941;-79
2022/01/15 07:25:46;;;;;;;;;;;;;;;;;;5086543;28;1029;-79
2022/01/15 07:28:12;;;;;;;;;;;;;;;;;;5071640;28;1283;-79
2022/01/15 07:30:38;;;;;;;;;;;;;;;;;;5084007;28;1185;-78
2022/01/15 07:33:03;;;;;;;;;;;;;;;;;;5083751;28;1277;-84
2022/01/15 07:35:29;;;;;;;;;;;;;;;;;;5083421;28;1072;-82
2022/01/15 07:37:55;;;;;;;;;;;;;;;;;;5088046;28;1294;-83
2022/01/15 07:40:29;;;;;;;;;;;;;;;;;;5087038;28;1283;-83
2022/01/15 07:42:54;;;;;;;;;;;;;;;;;;5086561;28;1968;-82
2022/01/15 07:45:29;;;;;;;;;;;;;;;;;;5069715;28;1344;-84
2022/01/15 07:47:54;;;;;;;;;;;;;;;;;;5063395;28;1176;-83
2022/01/15 07:50:29;;;;;;;;;;;;;;;;;;5064721;28;1164;-82
2022/01/15 07:52:55;;;;;;;;;;;;;;;;;;5055418;28;1216;-83
2022/01/15 07:55:21;;;;;;;;;;;;;;;;;;5067287;28;1291;-84
2022/01/15 07:57:46;;;;;;;;;;;;;;;;;;5063323;28;1161;-81
2022/01/15 08:00:12;;;;;;;;;;;;;;;;;;5049730;28;1231;-82
2022/01/15 08:02:37;;;;;;;;;;;;;;;;;;5050959;28;1897;-82
2022/01/15 08:05:03;;;;;;;;;;;;;;;;;;5082069;28;1139;-84
2022/01/15 08:07:31;;;;;;;;;;;;;;;;;;5074752;28;1152;-84
2022/01/15 08:09:56;;;;;;;;;;;;;;;;;;5056822;28;1264;-83
2022/01/15 08:12:22;;;;;;;;;;;;;;;;;;5069596;28;1247;-82
2022/01/15 08:14:49;;;;;;;;;;;;;;;;;;5083548;28;1503;-81
2022/01/15 08:17:14;;;;;;;;;;;;;;;;;;5071908;28;1361;-81
2022/01/15 08:19:39;;;;;;;;;;;;;;;;;;5062855;28;1176;-83
2022/01/15 08:22:05;;;;;;;;;;;;;;;;;;5068704;28;1956;-83
2022/01/15 08:24:33;;;;;;;;;;;;;;;;;;5075832;28;1300;-83
2022/01/15 08:26:58;;;;;;;;;;;;;;;;;;5069853;28;1167;-84
2022/01/15 08:29:24;;;;;;;;;;;;;;;;;;5072031;28;1216;-84
2022/01/15 08:31:49;;;;;;;;;;;;;;;;;;5082059;28;1211;-83
2022/01/15 08:34:14;;;;;;;;;;;;;;;;;;5071873;28;1177;-82
2022/01/15 08:36:39;;;;;;;;;;;;;;;;;;5053619;28;1169;-83
2022/01/15 08:39:05;;;;;;;;;;;;;;;;;;5062040;28;1216;-84
2022/01/15 08:41:34;;;;;;;;;;;;;;;;;;5077820;28;1898;-83
2022/01/15 08:43:59;;;;;;;;;;;;;;;;;;5085163;28;1233;-83
2022/01/15 08:46:24;;;;;;;;;;;;;;;;;;5078054;28;1211;-84
2022/01/15 08:48:51;;;;;;;;;;;;;;;;;;5045233;28;1210;-83
2022/01/15 08:51:16;;;;;;;;;;;;;;;;;;5047601;28;1332;-83
2022/01/15 08:53:42;;;;;;;;;;;;;;;;;;5077992;28;1196;-88
2022/01/15 08:56:07;;;;;;;;;;;;;;;;;;5077215;28;1250;-92
2022/01/15 08:58:36;;;;;;;;;;;;;;;;;;5057691;28;1271;-92
2022/01/15 09:01:01;;;;;;;;;;;;;;;;;;5060825;28;1137;-91
2022/01/15 09:03:42;;;;;;;;;;;;;;;;;;5088406;28;1281;-92
2022/01/15 09:06:11;;;;;;;;;;;;;;;;;;5056612;28;1203;-91
2022/01/15 09:08:36;;;;;;;;;;;;;;;;;;5082910;28;1249;-92
2022/01/15 09:11:02;;;;;;;;;;;;;;;;;;5071107;28;1330;-90
2022/01/15 09:13:29;;;;;;;;;;;;;;;;;;5071669;28;1207;-93
2022/01/15 09:15:54;;;;;;;;;;;;;;;;;;5075814;28;1303;-92
2022/01/15 09:18:38;;;;;;;;;;;;;;;;;;5081560;28;1186;-89
2022/01/15 09:21:03;;;;;;;;;;;;;;;;;;5078174;28;1893;-88
2022/01/15 09:23:32;;;;;;;;;;;;;;;;;;5066371;28;1206;-92
2022/01/15 09:25:58;;;;;;;;;;;;;;;;;;5076944;28;1271;-90
2022/01/15 09:31:08;;;;;;;;;;;;;;;;;;5083668;28;981;-91
2022/01/15 09:33:39;;;;;;;;;;;;;;;;;;5077592;28;1230;-92
2022/01/15 09:36:05;;;;;;;;;;;;;;;;;;5080183;28;1191;-91
2022/01/15 09:38:39;;;;;;;;;;;;;;;;;;5072379;28;1289;-93
2022/01/15 09:41:05;;;;;;;;;;;;;;;;;;5083341;28;1901;-92
2022/01/15 09:43:39;;;;;;;;;;;;;;;;;;5080141;28;1155;-92
2022/01/15 09:46:06;;;;;;;;;;;;;;;;;;5076917;28;1198;-92
2022/01/15 09:48:42;;;;;;;;;;;;;;;;;;5074555;28;1250;-92
2022/01/15 09:51:10;;;;;;;;;;;;;;;;;;5079194;28;1301;-93
2022/01/15 09:53:42;;;;;;;;;;;;;;;;;;5081480;28;1141;-93
2022/01/15 09:56:20;;;;;;;;;;;;;;;;;;5060902;28;1274;-92
2022/01/15 09:58:54;;;;;;;;;;;;;;;;;;5060042;28;1276;-94
2022/01/15 10:01:45;;;;;;;;;;;;;;;;;;5074226;28;1882;-94
2022/01/15 10:04:11;;;;;;;;;;;;;;;;;;5071734;28;1272;-95
2022/01/15 10:06:54;;;;;;;;;;;;;;;;;;5081199;28;1164;-91
2022/01/15 10:09:24;;;;;;;;;;;;;;;;;;5076525;28;1151;-92
2022/01/15 10:11:53;;;;;;;;;;;;;;;;;;5074424;28;1200;-84
2022/01/15 10:14:22;;;;;;;;;;;;;;;;;;5070719;28;1415;-90
2022/01/15 10:16:50;;;;;;;;;;;;;;;;;;5065828;28;1235;-95
2022/01/15 10:19:26;;;;;;;;;;;;;;;;;;5059432;28;1274;-81
2022/01/15 10:22:05;;;;;;;;;;;;;;;;;;5073358;28;1902;-88
2022/01/15 10:24:32;;;;;;;;;;;;;;;;;;5066664;28;1255;-81
2022/01/15 10:27:16;;;;;;;;;;;;;;;;;;5070948;28;1433;-81
2022/01/15 10:29:41;;;;;;;;;;;;;;;;;;5067871;28;1190;-81
2022/01/15 10:32:14;;;;;;;;;;;;;;;;;;5058685;28;1247;-83
2022/01/15 10:34:46;;;;;;;;;;;;;;;;;;5071628;28;1284;-82
2022/01/15 10:37:13;;;;;;;;;;;;;;;;;;5055944;28;1190;-82
2022/01/15 10:39:59;;;;;;;;;;;;;;;;;;5066218;28;1187;-81
2022/01/15 10:42:25;;;;;;;;;;;;;;;;;;5077467;28;1975;-81
2022/01/15 10:44:54;;;;;;;;;;;;;;;;;;5085994;28;1256;-80
2022/01/15 10:47:21;;;;;;;;;;;;;;;;;;5079590;28;1423;-82
2022/01/15 10:49:46;;;;;;;;;;;;;;;;;;5072544;28;1307;-82
2022/01/15 10:52:19;;;;;;;;;;;;;;;;;;5083703;28;1379;-82
2022/01/15 10:55:00;;;;;;;;;;;;;;;;;;5075110;28;1200;-81
2022/01/15 10:57:27;;;;;;;;;;;;;;;;;;5084907;28;1279;-81
2022/01/15 10:59:56;;;;;;;;;;;;;;;;;;5066960;28;1174;-82
2022/01/15 11:02:22;;;;;;;;;;;;;;;;;;5064341;28;1955;-80
2022/01/15 11:04:47;;;;;;;;;;;;;;;;;;5058874;28;1110;-80
2022/01/15 11:07:16;;;;;;;;;;;;;;;;;;5065488;28;1323;-76
2022/01/15 11:09:50;;;;;;;;;;;;;;;;;;5064634;28;1219;-81
2022/01/15 11:12:16;;;;;;;;;;;;;;;;;;5081938;28;1206;-80
2022/01/15 11:14:51;;;;;;;;;;;;;;;;;;5081907;28;1221;-80
2022/01/15 11:17:16;;;;;;;;;;;;;;;;;;5075048;28;1214;-87
2022/01/15 11:19:53;;;;;;;;;;;;;;;;;;5075528;28;1136;-84
2022/01/15 11:22:21;;;;;;;;;;;;;;;;;;5065147;28;1897;-82
2022/01/15 11:24:52;;;;;;;;;;;;;;;;;;5083675;28;1283;-81
2022/01/15 11:27:18;;;;;;;;;;;;;;;;;;5069074;28;1202;-83
2022/01/15 11:29:49;;;;;;;;;;;;;;;;;;5083082;28;1300;-82
2022/01/15 11:32:15;;;;;;;;;;;;;;;;;;5087584;28;1120;-81
2022/01/15 11:34:42;;;;;;;;;;;;;;;;;;5055656;28;1320;-82
2022/01/15 11:37:19;;;;;;;;;;;;;;;;;;5078587;28;1225;-83
2022/01/15 11:39:54;;;;;;;;;;;;;;;;;;5063524;28;1270;-81
2022/01/15 11:42:52;;;;;;;;;;;;;;;;;;5060205;28;1913;-78
2022/01/15 11:45:36;;;;;;;;;;;;;;;;;;5084069;28;1240;-79
2022/01/15 11:48:26;;;;;;;;;;;;;;;;;;5081467;28;1241;-83
2022/01/15 11:51:10;;;;;;;;;;;;;;;;;;5069479;28;1241;-82
2022/01/15 11:53:57;;;;;;;;;;;;;;;;;;5070185;28;1155;-84
2022/01/15 11:56:27;;;;;;;;;;;;;;;;;;5075703;28;1328;-81
2022/01/15 11:58:56;;;;;;;;;;;;;;;;;;5073111;28;1324;-85
2022/01/15 12:01:42;;;;;;;;;;;;;;;;;;5070444;28;1945;-83
2022/01/15 12:04:27;;;;;;;;;;;;;;;;;;5057861;28;1176;-83
2022/01/15 12:07:07;;;;;;;;;;;;;;;;;;5075489;28;1168;-82
2022/01/15 12:09:34;;;;;;;;;;;;;;;;;;5085911;28;1307;-85
2022/01/15 12:12:00;;;;;;;;;;;;;;;;;;5072987;28;1182;-84
2022/01/15 12:14:44;;;;;;;;;;;;;;;;;;5053442;28;1211;-83
2022/01/15 12:17:21;;;;;;;;;;;;;;;;;;5081840;28;1132;-82
2022/01/15 12:19:57;;;;;;;;;;;;;;;;;;5069871;28;1221;-85
2022/01/15 12:22:44;;;;;;;;;;;;;;;;;;5073968;28;1889;-83
2022/01/15 12:25:12;;;;;;;;;;;;;;;;;;5072763;28;1278;-83
2022/01/15 12:27:37;;;;;;;;;;;;;;;;;;5084970;28;1239;-81
2022/01/15 12:30:02;;;;;;;;;;;;;;;;;;5055931;28;1266;-82
2022/01/15 12:32:32;;;;;;;;;;;;;;;;;;5073953;28;1167;-83
2022/01/15 12:34:58;;;;;;;;;;;;;;;;;;5064792;28;1315;-81
2022/01/15 12:37:24;;;;;;;;;;;;;;;;;;5073808;28;1215;-81
2022/01/15 12:39:56;;;;;;;;;;;;;;;;;;5083526;28;1121;-80
2022/01/15 12:42:28;;;;;;;;;;;;;;;;;;5086473;28;1946;-82
2022/01/15 12:44:56;;;;;;;;;;;;;;;;;;5084583;28;1223;-82
2022/01/15 12:47:21;;;;;;;;;;;;;;;;;;5083149;28;1250;-85
2022/01/15 12:49:55;;;;;;;;;;;;;;;;;;5084690;28;1183;-84
2022/01/15 12:52:25;;;;;;;;;;;;;;;;;;5071211;28;1195;-82
2022/01/15 12:54:55;;;;;;;;;;;;;;;;;;5063882;28;1174;-82
2022/01/15 12:57:35;;;;;;;;;;;;;;;;;;5082850;28;1160;-82
2022/01/15 13:00:03;;;;;;;;;;;;;;;;;;5079270;28;1046;-81
2022/01/15 13:02:28;;;;;;;;;;;;;;;;;;5084073;28;1947;-81
2022/01/15 13:04:59;;;;;;;;;;;;;;;;;;5077355;28;1160;-83
2022/01/15 13:07:24;;;;;;;;;;;;;;;;;;5077197;28;1234;-83
2022/01/15 13:09:59;;;;;;;;;;;;;;;;;;5076953;28;1425;-83
2022/01/15 13:12:24;;;;;;;;;;;;;;;;;;5067472;28;1263;-83
2022/01/15 13:14:50;;;;;;;;;;;;;;;;;;5066060;28;1178;-81
2022/01/15 13:17:20;;;;;;;;;;;;;;;;;;5081180;28;1278;-83
2022/01/15 13:19:46;;;;;;;;;;;;;;;;;;5079778;28;1126;-88
2022/01/15 13:25:08;;;;;;;;;;;;;;;;;;5073777;28;1260;-87
2022/01/15 13:27:34;;;;;;;;;;;;;;;;;;5079655;28;1235;-88
2022/01/15 13:30:27;;;;;;;;;;;;;;;;;;;;;
2022/01/15 13:33:02;;;;;;;;;;;;;;;;;;5084896;28;1121;-89
2022/01/15 13:35:28;;;;;;;;;;;;;;;;;;5084379;28;1234;-90
2022/01/15 13:37:56;;;;;;;;;;;;;;;;;;5069433;28;1308;-82
2022/01/15 13:40:25;;;;;;;;;;;;;;;;;;5084625;28;1235;-88
2022/01/15 13:42:51;;;;;;;;;;;;;;;;;;5077778;28;1905;-89
2022/01/15 13:45:16;;;;;;;;;;;;;;;;;;5064167;28;1318;-86
2022/01/15 13:47:41;;;;;;;;;;;;;;;;;;5072776;28;1189;-86
2022/01/15 13:53:07;;;;;;;;;;;;;;;;;;5076575;28;1028;-88
2022/01/15 13:55:32;;;;;;;;;;;;;;;;;;5081259;28;1264;-89
2022/01/15 13:58:11;;;;;;;;;;;;;;;;;;5063077;28;1202;-89
2022/01/15 14:00:36;;;;;;;;;;;;;;;;;;5072205;28;1301;-89
2022/01/15 14:03:05;;;;;;;;;;;;;;;;;;5084943;28;1889;-87
2022/01/15 14:05:31;;;;;;;;;;;;;;;;;;5073359;28;1313;-87
2022/01/15 14:08:06;;;;;;;;;;;;;;;;;;5082471;28;1172;-88
2022/01/15 14:10:31;;;;;;;;;;;;;;;;;;5061943;28;1208;-89
2022/01/15 14:13:05;;;;;;;;;;;;;;;;;;5066599;28;1184;-88
2022/01/15 14:15:31;;;;;;;;;;;;;;;;;;5076864;28;1308;-87
2022/01/15 14:18:19;;;;;;;;;;;;;;;;;;5054645;28;1209;-89
2022/01/15 14:23:28;;;;;;;;;;;;;;;;;;5070267;28;1894;-89
2022/01/15 14:25:53;;;;;;;;;;;;;;;;;;5065708;28;1398;-88
2022/01/15 14:28:23;;;;;;;;;;;;;;;;;;5054757;28;1226;-89
2022/01/15 14:30:56;;;;;;;;;;;;;;;;;;5071298;28;1195;-88
2022/01/15 14:33:27;;;;;;;;;;;;;;;;;;5062415;28;1249;-88
2022/01/15 14:35:53;;;;;;;;;;;;;;;;;;5075062;28;1207;-88
2022/01/15 14:38:18;;;;;;;;;;;;;;;;;;5069353;28;1160;-88
2022/01/15 14:40:44;;;;;;;;;;;;;;;;;;5084043;28;1378;-88
2022/01/15 14:43:13;;;;;;;;;;;;;;;;;;5074716;28;1910;-88
2022/01/15 14:45:40;;;;;;;;;;;;;;;;;;5075464;28;1220;-88
2022/01/15 14:48:06;;;;;;;;;;;;;;;;;;5073023;28;1304;-89
2022/01/15 14:50:31;;;;;;;;;;;;;;;;;;5085867;28;1317;-89
2022/01/15 14:52:57;;;;;;;;;;;;;;;;;;5070118;28;1253;-90
2022/01/15 14:55:22;;;;;;;;;;;;;;;;;;5067215;28;1262;-90
2022/01/15 14:57:56;;;;;;;;;;;;;;;;;;5070832;28;1160;-90
2022/01/15 15:00:32;;;;;;;;;;;;;;;;;;5077983;28;1203;-88
2022/01/15 15:02:57;;;;;;;;;;;;;;;;;;5060242;28;1963;-90
2022/01/15 15:05:26;;;;;;;;;;;;;;;;;;5077357;28;1044;-87
2022/01/15 15:07:51;;;;;;;;;;;;;;;;;;5067246;28;1180;-88
2022/01/15 15:10:34;;;;;;;;;;;;;;;;;;5077124;28;1210;-87
2022/01/15 15:13:27;;;;;;;;;;;;;;;;;;5057459;28;1439;-89
2022/01/15 15:25:24;;;;;;;;;;;;;;;;;;5068740;28;1246;-89
2022/01/15 15:27:49;;;;;;;;;;;;;;;;;;5052509;28;1262;-90
2022/01/15 15:36:16;;;;;;;;;;;;;;;;;;5059241;28;1125;-88
2022/01/15 15:38:42;;;;;;;;;;;;;;;;;;5054604;28;1185;-89
2022/01/15 15:41:11;;;;;;;;;;;;;;;;;;5030838;28;1170;-87
2022/01/15 15:43:37;;;;;;;;;;;;;;;;;;5036204;28;1883;-89
2022/01/15 15:46:03;;;;;;;;;;;;;;;;;;5054145;28;1145;-87
2022/01/15 15:48:28;;;;;;;;;;;;;;;;;;5082967;28;1188;-88
2022/01/15 15:50:53;;;;;;;;;;;;;;;;;;5054821;28;1302;-89
2022/01/15 15:53:19;;;;;;;;;;;;;;;;;;5068130;28;1411;-87
2022/01/15 15:55:46;;;;;;;;;;;;;;;;;;5062342;28;1219;-88
2022/01/15 15:58:15;;;;;;;;;;;;;;;;;;5065245;28;1219;-88
2022/01/15 16:00:40;;;;;;;;;;;;;;;;;;5064370;28;1275;-87
2022/01/15 16:03:06;;;;;;;;;;;;;;;;;;5072220;28;1906;-83
2022/01/15 16:05:31;;;;;;;;;;;;;;;;;;5066300;28;1044;-85
2022/01/15 16:07:57;;;;;;;;;;;;;;;;;;5071136;28;1204;-85
2022/01/15 16:10:24;;;;;;;;;;;;;;;;;;5079302;28;1222;-85
2022/01/15 16:12:52;;;;;;;;;;;;;;;;;;5073749;28;1167;-85
2022/01/15 16:15:21;;;;;;;;;;;;;;;;;;5064681;28;1412;-83
2022/01/15 16:17:47;;;;;;;;;;;;;;;;;;5069767;28;1215;-83
2022/01/15 16:20:16;;;;;;;;;;;;;;;;;;5068979;28;1361;-82
2022/01/15 16:22:42;;;;;;;;;;;;;;;;;;5055594;28;1906;-83
2022/01/15 16:25:08;;;;;;;;;;;;;;;;;;5052180;28;1313;-82
2022/01/15 16:27:33;;;;;;;;;;;;;;;;;;5070592;28;1485;-82
2022/01/15 16:29:58;;;;;;;;;;;;;;;;;;5070292;28;1334;-82
2022/01/15 16:32:25;;;;;;;;;;;;;;;;;;5066828;28;1145;-84
2022/01/15 16:34:51;;;;;;;;;;;;;;;;;;5067470;28;1455;-82
2022/01/15 16:37:17;;;;;;;;;;;;;;;;;;5074942;28;1197;-83
2022/01/15 16:39:42;;;;;;;;;;;;;;;;;;5080622;28;1178;-82
2022/01/15 16:42:17;;;;;;;;;;;;;;;;;;5054685;28;1906;-85
2022/01/15 16:44:42;;;;;;;;;;;;;;;;;;5070647;28;1200;-84
2022/01/15 16:47:10;;;;;;;;;;;;;;;;;;5066398;28;1258;-84
2022/01/15 16:49:35;;;;;;;;;;;;;;;;;;5047121;28;1456;-82
2022/01/15 16:52:04;;;;;;;;;;;;;;;;;;5062056;28;1191;-84
2022/01/15 16:54:30;;;;;;;;;;;;;;;;;;5068274;28;1187;-82
2022/01/15 16:56:55;;;;;;;;;;;;;;;;;;5080613;28;1152;-84
2022/01/15 16:59:21;;;;;;;;;;;;;;;;;;5068150;28;1222;-82
2022/01/15 17:01:47;;;;;;;;;;;;;;;;;;5072353;28;1898;-82
2022/01/15 17:04:17;;;;;;;;;;;;;;;;;;5081086;28;1415;-82
2022/01/15 17:06:43;;;;;;;;;;;;;;;;;;5066035;28;1253;-83
2022/01/15 17:09:09;;;;;;;;;;;;;;;;;;5060762;28;1247;-84
2022/01/15 17:11:34;;;;;;;;;;;;;;;;;;5055113;28;1263;-84
2022/01/15 17:14:00;;;;;;;;;;;;;;;;;;5056734;28;1241;-83
2022/01/15 17:16:26;;;;;;;;;;;;;;;;;;5069563;28;1204;-85
2022/01/15 17:18:53;;;;;;;;;;;;;;;;;;5076760;28;1308;-84
2022/01/15 17:21:18;;;;;;;;;;;;;;;;;;5069913;28;1140;-83
2022/01/15 17:23:44;;;;;;;;;;;;;;;;;;5075171;28;1955;-83
2022/01/15 17:26:09;;;;;;;;;;;;;;;;;;5074098;28;1120;-83
2022/01/15 17:28:35;;;;;;;;;;;;;;;;;;5064725;28;1336;-83
2022/01/15 17:31:00;;;;;;;;;;;;;;;;;;5070038;28;1260;-83
2022/01/15 17:33:28;;;;;;;;;;;;;;;;;;5096792;28;1168;-81
2022/01/15 17:35:53;;;;;;;;;;;;;;;;;;5048212;28;1244;-82
2022/01/15 17:38:23;;;;;;;;;;;;;;;;;;5063008;28;1391;-82
2022/01/15 17:40:48;;;;;;;;;;;;;;;;;;5073650;28;1313;-83
2022/01/15 17:43:14;;;;;;;;;;;;;;;;;;5083098;28;1974;-82
2022/01/15 17:45:40;;;;;;;;;;;;;;;;;;5092135;28;1174;-81
2022/01/15 17:48:05;;;;;;;;;;;;;;;;;;5073275;27;1228;-82
2022/01/15 17:50:31;;;;;;;;;;;;;;;;;;5085844;27;1321;-85